Nassau, Minnesota
Current Conditions -  °F | °C
As of 6:14 PM on Tuesday 25 Nov 2014 (Local Time) from KDXX Reporting Station
Clear Clear  
Wind Chill: 23°   Ceiling: Unl
Heat Index: 30°   Visibility: 10mi
Dew Point: 25°   Wind: 8mph
Humidity: 80%   Direction: 120°ESE
Pressure: 29.9"   Gusts: NA
Location:  45.07°N, 96.44°W
Report Text: KDXX 260014Z AUTO 12007KT 10SM CLR M01/M04 A2990 RMK AO2
Loading
Personal Weather Stations






























Interactive Weather Map New forecast layout! Learn more

10-Day Weather Forecast

Advertisements
Track Severe Weather on mobile